Time;durP1;ratioP1;P1;durP2;ratioP2;P2;SDS_P1;SDS_P2;PMS_P1;PMS_P2;Temp;Humidity;BMP_temperature;BMP_pressure;BME280_temperature;BME280_humidity;BME280_pressure;Samples;Min_cycle;Max_cycle;Signal;HPM_P1;HPM_P2
2022/08/26 00:01:22;;;;;;;19.17;12.45;;;;;;;19.38;100.00;101336.44;5029267;28;20595;-82
2022/08/26 00:03:48;;;;;;;17.90;10.90;;;;;;;19.38;100.00;101339.19;5011031;28;20041;-81
2022/08/26 00:06:13;;;;;;;21.40;10.50;;;;;;;19.34;100.00;101341.63;5028060;28;20041;-82
2022/08/26 00:08:40;;;;;;;17.70;9.80;;;;;;;19.36;100.00;101336.66;5028754;28;20136;-81
2022/08/26 00:11:06;;;;;;;16.25;9.40;;;;;;;19.35;100.00;101350.66;5028888;28;20041;-82
2022/08/26 00:13:33;;;;;;;16.55;8.55;;;;;;;19.33;100.00;101352.88;5029173;28;20123;-82
2022/08/26 00:15:59;;;;;;;18.17;8.13;;;;;;;19.32;100.00;101349.28;5029478;28;20128;-80
2022/08/26 00:18:24;;;;;;;15.50;8.40;;;;;;;19.31;100.00;101357.78;5026802;28;20562;-81
2022/08/26 00:20:50;;;;;;;15.50;7.13;;;;;;;19.32;100.00;101356.69;5028656;28;20461;-81
2022/08/26 00:23:16;;;;;;;15.90;7.35;;;;;;;19.30;100.00;101354.22;5027991;28;20069;-81
2022/08/26 00:25:42;;;;;;;12.80;6.73;;;;;;;19.26;100.00;101355.81;5023606;28;20541;-81
2022/08/26 00:28:08;;;;;;;13.95;6.60;;;;;;;19.30;100.00;101358.88;5027358;28;20112;-82
2022/08/26 00:30:40;;;;;;;14.63;6.47;;;;;;;19.28;100.00;101350.88;5028786;28;20163;-81
2022/08/26 00:33:06;;;;;;;16.97;6.60;;;;;;;19.30;100.00;101358.88;5029160;28;20037;-82
2022/08/26 00:35:33;;;;;;;12.67;6.03;;;;;;;19.30;100.00;101356.94;5028147;28;20033;-80
2022/08/26 00:38:00;;;;;;;13.32;6.13;;;;;;;19.25;100.00;101367.88;5032740;28;20037;-81
2022/08/26 00:40:30;;;;;;;12.47;5.90;;;;;;;19.23;100.00;101365.41;5032781;28;20028;-83
2022/08/26 00:42:55;;;;;;;14.03;5.97;;;;;;;19.23;100.00;101368.13;5014189;28;20047;-82
2022/08/26 00:45:21;;;;;;;17.17;6.35;;;;;;;19.23;100.00;101359.09;5031443;28;20662;-82
2022/08/26 00:47:55;;;;;;;15.10;5.95;;;;;;;19.23;100.00;101353.59;5031965;28;20075;-81
2022/08/26 00:50:28;;;;;;;12.43;6.10;;;;;;;19.27;100.00;101354.72;5031821;28;20029;-82
2022/08/26 00:52:54;;;;;;;13.48;6.07;;;;;;;19.27;100.00;101353.88;5026397;28;20546;-83
2022/08/26 00:55:25;;;;;;;12.80;5.90;;;;;;;19.21;100.00;101356.56;5032207;28;20036;-82
2022/08/26 00:57:52;;;;;;;13.70;6.13;;;;;;;19.25;100.00;101362.38;5031840;28;20106;-86
2022/08/26 01:00:22;;;;;;;12.83;5.90;;;;;;;19.24;100.00;101352.47;5032092;28;20555;-82
2022/08/26 01:02:49;;;;;;;16.30;5.57;;;;;;;19.25;100.00;101373.38;5030979;28;20159;-82
2022/08/26 01:05:16;;;;;;;13.15;5.93;;;;;;;19.19;100.00;101369.75;5032389;28;20026;-82
2022/08/26 01:07:41;;;;;;;11.60;6.20;;;;;;;19.17;100.00;101371.91;5031285;28;20041;-82
2022/08/26 01:10:11;;;;;;;14.90;6.15;;;;;;;19.16;100.00;101373.00;5030630;28;20041;-81
2022/08/26 01:12:41;;;;;;;14.30;6.47;;;;;;;19.11;100.00;101361.97;5031488;28;20033;-81
2022/08/26 01:15:12;;;;;;;15.50;6.03;;;;;;;19.14;100.00;101363.38;5032082;28;20037;-83
2022/08/26 01:17:38;;;;;;;17.80;6.60;;;;;;;19.11;100.00;101361.09;5030748;28;20053;-85
2022/08/26 01:20:48;;;;;;;13.02;6.53;;;;;;;19.13;100.00;101361.69;5031778;28;20041;-82
2022/08/26 01:23:14;;;;;;;12.13;6.28;;;;;;;19.08;100.00;101367.97;5013228;28;20103;-83
2022/08/26 01:25:45;;;;;;;13.25;6.47;;;;;;;19.05;100.00;101371.22;5031675;28;20083;-81
2022/08/26 01:28:20;;;;;;;13.82;6.43;;;;;;;19.05;100.00;101371.22;5031798;28;20029;-80
2022/08/26 01:30:48;;;;;;;14.07;6.20;;;;;;;19.08;100.00;101364.38;5031736;28;20048;-81
2022/08/26 01:33:18;;;;;;;15.25;6.40;;;;;;;19.05;100.00;101362.97;5031744;28;20209;-81
2022/08/26 01:35:44;;;;;;;15.57;6.10;;;;;;;19.05;100.00;101366.56;5030695;28;20040;-82
2022/08/26 01:38:10;;;;;;;16.30;7.00;;;;;;;19.11;100.00;101361.09;5032038;28;20040;-82
2022/08/26 01:40:37;;;;;;;15.32;5.88;;;;;;;19.08;100.00;101364.38;5029622;28;20041;-82
2022/08/26 01:43:06;;;;;;;14.45;6.20;;;;;;;19.11;100.00;101361.09;5030329;28;20475;-82
2022/08/26 01:45:34;;;;;;;14.17;6.40;;;;;;;19.10;100.00;101359.47;5031345;28;20106;-82
2022/08/26 01:48:06;;;;;;;12.68;5.88;;;;;;;19.15;100.00;101352.13;5030550;28;20037;-81
2022/08/26 01:50:34;;;;;;;13.40;6.10;;;;;;;19.14;100.00;101355.94;5014680;28;20061;-83
2022/08/26 01:53:05;;;;;;;11.68;6.28;;;;;;;19.15;100.00;101363.09;5030544;28;20433;-83
2022/08/26 01:55:33;;;;;;;14.67;6.60;;;;;;;19.18;100.00;101361.75;5030381;28;20071;-81
2022/08/26 01:58:00;;;;;;;11.20;6.25;;;;;;;19.17;100.00;101365.59;5030166;28;20540;-82
2022/08/26 02:00:26;;;;;;;13.17;6.43;;;;;;;19.15;100.00;101365.84;5030628;28;20029;-82
2022/08/26 02:03:16;;;;;;;13.35;6.35;;;;;;;19.19;100.00;101369.75;5012574;28;20033;-80
2022/08/26 02:06:05;;;;;;;13.07;6.07;;;;;;;19.18;100.00;101359.00;5030913;28;20041;-82
2022/08/26 02:08:38;;;;;;;11.80;5.43;;;;;;;19.18;100.00;101367.25;5029836;28;20037;-80
2022/08/26 02:11:04;;;;;;;14.10;5.90;;;;;;;19.20;100.00;101365.06;5029764;28;20040;-81
2022/08/26 02:13:31;;;;;;;10.90;6.30;;;;;;;19.17;100.00;101360.91;5030132;28;20040;-82
2022/08/26 02:16:00;;;;;;;15.30;5.60;;;;;;;19.23;100.00;101359.91;5030166;28;20159;-85
2022/08/26 02:18:28;;;;;;;10.40;5.77;;;;;;;19.20;100.00;101356.81;5030444;28;20119;-80
2022/08/26 02:20:55;;;;;;;13.18;5.47;;;;;;;19.19;100.00;101367.00;5031372;28;20106;-82
2022/08/26 02:23:20;;;;;;;13.60;5.43;;;;;;;19.20;100.00;101367.81;5029955;28;20037;-82
2022/08/26 02:25:53;;;;;;;13.07;5.57;;;;;;;19.19;100.00;101366.19;5030737;28;20095;-82
2022/08/26 02:28:18;;;;;;;16.00;5.43;;;;;;;19.16;100.00;101364.78;5030065;28;20082;-83
2022/08/26 02:30:44;;;;;;;10.13;5.60;;;;;;;19.21;100.00;101373.03;5030680;28;20041;-82
2022/08/26 02:33:10;;;;;;;12.52;5.65;;;;;;;19.20;100.00;101370.56;5030351;28;20561;-81
2022/08/26 02:35:36;;;;;;;9.55;5.30;;;;;;;19.21;100.00;101369.47;5030887;28;20036;-81
2022/08/26 02:38:04;;;;;;;13.15;5.55;;;;;;;19.19;100.00;101371.66;5029901;28;20041;-82
2022/08/26 02:40:33;;;;;;;12.15;5.13;;;;;;;19.21;100.00;101375.78;5029076;28;20033;-80
2022/08/26 02:42:58;;;;;;;9.27;4.70;;;;;;;19.17;100.00;101382.88;5028474;28;20393;-80
2022/08/26 02:45:25;;;;;;;10.60;5.35;;;;;;;19.16;100.00;101391.38;5029692;28;20041;-80
2022/08/26 02:47:51;;;;;;;11.40;5.03;;;;;;;19.18;100.00;101383.75;5029892;28;20040;-81
2022/08/26 02:50:16;;;;;;;11.27;4.82;;;;;;;19.17;100.00;101382.88;5030569;28;20063;-81
2022/08/26 02:52:41;;;;;;;9.88;4.50;;;;;;;19.16;100.00;101383.16;5024888;28;20041;-82
2022/08/26 02:55:07;;;;;;;10.07;4.55;;;;;;;19.13;100.00;101387.25;5029901;28;20045;-82
2022/08/26 02:57:32;;;;;;;9.73;3.85;;;;;;;19.15;100.00;101387.81;5028924;28;20124;-82
2022/08/26 02:59:59;;;;;;;7.03;3.70;;;;;;;19.16;100.00;101385.91;5027960;28;20037;-81
2022/08/26 03:02:25;;;;;;;9.05;3.70;;;;;;;19.17;100.00;101379.31;5028268;28;20465;-80
2022/08/26 03:04:50;;;;;;;13.02;4.20;;;;;;;19.13;100.00;101381.75;5029786;28;20075;-82
2022/08/26 03:07:16;;;;;;;9.80;3.73;;;;;;;19.16;100.00;101383.16;5028048;28;20043;-82
2022/08/26 03:09:41;;;;;;;9.67;3.50;;;;;;;19.12;100.00;101377.34;5029625;28;20085;-81
2022/08/26 03:12:07;;;;;;;11.20;4.22;;;;;;;19.15;100.00;101378.75;5029408;28;20048;-81
2022/08/26 03:14:32;;;;;;;10.40;4.40;;;;;;;19.09;100.00;101379.78;5029608;28;20037;-81
2022/08/26 03:17:00;;;;;;;7.60;4.20;;;;;;;19.08;100.00;101386.34;5029418;28;20519;-80
2022/08/26 03:19:25;;;;;;;7.77;4.43;;;;;;;19.05;100.00;101385.78;5029126;28;20026;-81
2022/08/26 03:21:52;;;;;;;10.10;4.70;;;;;;;19.02;100.00;101380.78;5029683;28;20477;-81
2022/08/26 03:24:18;;;;;;;10.48;4.60;;;;;;;19.00;100.00;101382.97;5029298;28;20709;-82
2022/08/26 03:26:44;;;;;;;12.10;4.70;;;;;;;19.00;100.00;101373.91;5029208;28;20127;-81
2022/08/26 03:31:54;;;;;;;9.27;4.35;;;;;;;18.98;100.00;101376.88;5029110;28;20067;-81
2022/08/26 03:34:20;;;;;;;8.57;4.25;;;;;;;18.98;100.00;101384.31;5029665;28;20032;-81
2022/08/26 03:36:45;;;;;;;13.00;4.40;;;;;;;18.97;100.00;101378.00;5020648;28;20359;-81
2022/08/26 03:39:12;;;;;;;11.02;3.92;;;;;;;18.96;100.00;101389.22;5029496;28;20041;-82
2022/08/26 03:41:37;;;;;;;13.05;4.00;;;;;;;18.95;100.00;101382.91;5029397;28;20060;-80
2022/08/26 03:44:04;;;;;;;8.23;3.50;;;;;;;18.95;100.00;101388.41;5029060;28;20485;-81
2022/08/26 03:46:34;;;;;;;11.90;4.15;;;;;;;18.90;100.00;101377.34;5014141;28;20049;-80
2022/08/26 03:49:01;;;;;;;9.38;3.60;;;;;;;18.93;100.00;101382.34;5029367;28;20106;-81
2022/08/26 03:51:26;;;;;;;11.38;3.90;;;;;;;18.95;100.00;101384.84;5029426;28;20037;-82
2022/08/26 03:53:52;;;;;;;9.55;3.70;;;;;;;18.97;100.00;101391.72;5028677;28;20068;-82
2022/08/26 03:56:17;;;;;;;9.87;4.07;;;;;;;18.97;100.00;101390.88;5029276;28;20029;-81
2022/08/26 03:58:43;;;;;;;12.32;3.88;;;;;;;18.97;100.00;101385.38;5028654;28;20072;-81
2022/08/26 04:01:10;;;;;;;9.52;3.63;;;;;;;18.97;100.00;101385.38;5012551;28;20045;-81
2022/08/26 04:06:20;;;;;;;10.52;3.80;;;;;;;18.93;100.00;101376.84;5014266;28;20044;-82
2022/08/26 04:08:45;;;;;;;9.63;3.80;;;;;;;18.97;100.00;101383.50;5029137;28;20033;-80
2022/08/26 04:11:20;;;;;;;13.77;4.15;;;;;;;18.99;100.00;101400.53;5030376;28;20056;-81
2022/08/26 04:13:47;;;;;;;13.38;3.88;;;;;;;18.99;100.00;101386.78;5032973;28;20090;-80
2022/08/26 04:16:13;;;;;;;11.55;3.75;;;;;;;18.99;100.00;101386.78;5032686;28;20040;-81
2022/08/26 04:18:39;;;;;;;10.17;3.53;;;;;;;18.98;100.00;101384.31;5032469;28;20057;-81
2022/08/26 04:21:05;;;;;;;11.27;3.72;;;;;;;18.97;100.00;101382.66;5033221;28;20033;-83
2022/08/26 04:23:30;;;;;;;9.50;3.40;;;;;;;18.99;100.00;101385.97;5032457;28;20045;-81
2022/08/26 04:25:56;;;;;;;8.85;3.58;;;;;;;18.95;100.00;101371.09;5032961;28;20037;-82
2022/08/26 04:28:21;;;;;;;9.15;3.70;;;;;;;19.00;100.00;101385.72;5032837;28;20033;-80
2022/08/26 04:30:48;;;;;;;10.93;3.53;;;;;;;19.00;100.00;101385.72;5032577;28;20681;-80
2022/08/26 04:33:13;;;;;;;8.80;3.10;;;;;;;19.02;100.00;101385.47;5032505;28;20047;-80
2022/08/26 04:35:38;;;;;;;9.18;2.95;;;;;;;19.01;100.00;101387.38;5031920;28;20040;-81
2022/08/26 04:38:04;;;;;;;7.72;3.05;;;;;;;19.01;100.00;101381.91;4998608;28;20168;-82
2022/08/26 04:40:29;;;;;;;11.52;3.60;;;;;;;19.00;100.00;101385.72;5031813;28;20147;-82
2022/08/26 04:42:55;;;;;;;9.75;3.22;;;;;;;19.02;100.00;101386.28;5030261;28;20045;-80
2022/08/26 04:45:21;;;;;;;9.38;3.05;;;;;;;19.00;100.00;101387.66;5033138;28;21493;-82
2022/08/26 04:47:46;;;;;;;7.80;3.43;;;;;;;19.01;100.00;101392.88;5031270;28;20041;-81
2022/08/26 04:50:12;;;;;;;6.90;3.03;;;;;;;19.00;100.00;101398.63;5031807;28;20042;-81
2022/08/26 04:52:37;;;;;;;7.25;3.00;;;;;;;18.98;100.00;101384.31;5031381;28;20037;-80
2022/08/26 04:55:04;;;;;;;9.55;3.22;;;;;;;18.99;100.00;101392.28;5013871;28;20033;-81
2022/08/26 04:57:30;;;;;;;8.20;2.78;;;;;;;19.03;100.00;101395.38;5031540;28;20441;-81
2022/08/26 04:59:56;;;;;;;10.07;3.05;;;;;;;19.00;100.00;101396.69;5032042;28;20071;-81
2022/08/26 05:02:22;;;;;;;8.82;3.00;;;;;;;18.99;100.00;101396.97;5031753;28;20041;-81
2022/08/26 05:04:47;;;;;;;8.70;3.00;;;;;;;19.00;100.00;101402.19;5031730;28;20040;-82
2022/08/26 05:07:13;;;;;;;10.98;3.10;;;;;;;19.00;100.00;101407.69;5030879;28;20060;-81
2022/08/26 05:09:39;;;;;;;8.20;2.85;;;;;;;19.01;100.00;101400.28;5041682;28;20033;-81
2022/08/26 05:12:04;;;;;;;9.80;2.80;;;;;;;19.01;100.00;101417.59;5043982;28;20098;-81
2022/08/26 05:14:31;;;;;;;8.45;3.20;;;;;;;19.00;100.00;101399.44;5043162;28;20043;-81
2022/08/26 05:16:56;;;;;;;6.03;2.95;;;;;;;18.99;100.00;101397.78;5025968;28;20037;-81
2022/08/26 05:19:22;;;;;;;11.82;2.85;;;;;;;19.02;100.00;101402.75;5025826;28;20033;-80
2022/08/26 05:21:48;;;;;;;10.02;3.40;;;;;;;19.03;100.00;101406.34;5041854;28;20162;-80
2022/08/26 05:24:14;;;;;;;11.60;3.25;;;;;;;19.01;100.00;101398.38;5040849;28;21407;-81
2022/08/26 05:26:40;;;;;;;9.25;3.10;;;;;;;19.03;100.00;101406.34;5043716;28;20043;-82
2022/08/26 05:29:06;;;;;;;9.05;2.92;;;;;;;19.03;100.00;101401.69;5042824;28;20036;-81
2022/08/26 05:31:32;;;;;;;9.48;2.90;;;;;;;18.99;100.00;101400.53;5042813;28;20036;-80
2022/08/26 05:33:59;;;;;;;9.25;3.30;;;;;;;19.03;100.00;101409.91;5025937;28;20042;-82
2022/08/26 05:36:28;;;;;;;6.97;2.90;;;;;;;19.05;100.00;101410.50;5043355;28;20105;-81
2022/08/26 05:38:55;;;;;;;10.13;3.10;;;;;;;19.08;100.00;101416.56;5025285;28;20024;-82
2022/08/26 05:41:27;;;;;;;7.97;3.10;;;;;;;19.06;100.00;101416.81;5043264;28;20029;-80
2022/08/26 05:43:54;;;;;;;7.60;3.00;;;;;;;19.07;99.94;101410.25;5043381;28;20025;-81
2022/08/26 05:46:19;;;;;;;7.80;3.17;;;;;;;19.09;100.00;101408.06;5042502;28;20492;-81
2022/08/26 05:48:45;;;;;;;6.65;3.05;;;;;;;19.11;100.00;101416.88;5042083;28;20048;-80
2022/08/26 05:51:11;;;;;;;9.43;2.78;;;;;;;19.15;100.00;101418.03;5043454;28;20039;-80
2022/08/26 05:53:39;;;;;;;6.82;3.10;;;;;;;19.14;99.84;101421.88;5042767;28;20500;-81
2022/08/26 05:56:42;;;;;;;6.75;2.83;;;;;;;19.19;99.54;101429.34;5043169;28;20566;-80
2022/08/26 05:59:12;;;;;;;12.45;3.60;;;;;;;19.21;100.00;101428.00;5042632;28;20137;-81
2022/08/26 06:01:38;;;;;;;10.32;3.20;;;;;;;19.23;99.75;101430.50;5042234;28;20024;-81
2022/08/26 06:04:04;;;;;;;6.95;2.70;;;;;;;19.23;99.13;101436.00;5041843;28;20036;-80
2022/08/26 06:06:32;;;;;;;10.55;2.90;;;;;;;19.25;99.42;101439.31;5043042;28;20051;-81
2022/08/26 06:08:59;;;;;;;6.32;2.38;;;;;;;19.28;99.14;101437.97;5023542;28;20476;-80
2022/08/26 06:11:26;;;;;;;7.13;2.95;;;;;;;19.34;99.12;101447.94;5043227;28;20037;-80
2022/08/26 06:13:53;;;;;;;10.63;2.90;;;;;;;19.39;99.23;101454.31;5043097;28;20032;-81
2022/08/26 06:16:22;;;;;;;8.23;2.80;;;;;;;19.39;98.71;101450.72;5042649;28;20431;-82
2022/08/26 06:18:49;;;;;;;5.93;2.55;;;;;;;19.39;98.27;101450.72;5042134;28;20048;-82
2022/08/26 06:21:22;;;;;;;10.32;2.90;;;;;;;19.47;99.11;101452.19;5043144;28;20864;-81
2022/08/26 06:26:35;;;;;;;7.45;2.72;;;;;;;19.45;97.92;101462.59;5042974;28;20528;-81
2022/08/26 06:29:00;;;;;;;6.38;2.38;;;;;;;19.46;98.24;101467.03;5042122;28;20037;-81
2022/08/26 06:31:27;;;;;;;8.38;2.50;;;;;;;19.45;97.69;101465.34;5043206;28;20043;-81
2022/08/26 06:33:53;;;;;;;7.78;2.75;;;;;;;19.50;97.96;101462.69;5042468;28;21009;-81
2022/08/26 06:36:21;;;;;;;4.60;2.20;;;;;;;19.49;97.07;101461.84;5041938;28;20040;-80
2022/08/26 06:38:48;;;;;;;6.30;2.28;;;;;;;19.51;96.42;101459.66;5042476;28;20185;-81
2022/08/26 06:41:15;;;;;;;7.00;2.22;;;;;;;19.53;96.12;101464.94;5042145;28;20032;-82
2022/08/26 06:43:40;;;;;;;6.05;2.20;;;;;;;19.54;95.86;101472.91;5009932;28;20542;-80
2022/08/26 06:46:09;;;;;;;4.90;2.08;;;;;;;19.60;96.45;101467.47;5042150;28;20036;-80
2022/08/26 06:48:35;;;;;;;7.70;2.20;;;;;;;19.65;96.48;101473.00;5042021;28;20040;-81
2022/08/26 06:51:10;;;;;;;7.80;2.20;;;;;;;19.65;96.03;101471.13;5039976;28;20032;-80
2022/08/26 06:53:36;;;;;;;7.70;2.42;;;;;;;19.71;95.68;101477.50;5042345;28;20064;-80
2022/08/26 06:56:05;;;;;;;6.85;2.20;;;;;;;19.67;94.87;101474.41;5041252;28;20029;-81
2022/08/26 06:58:31;;;;;;;6.63;2.10;;;;;;;19.72;94.51;101476.41;5040110;28;20044;-81
2022/08/26 07:00:56;;;;;;;8.65;2.28;;;;;;;19.72;94.54;101477.25;5042118;28;20096;-81
2022/08/26 07:03:22;;;;;;;7.47;2.40;;;;;;;19.77;94.46;101479.19;5041735;28;20044;-79
2022/08/26 07:05:48;;;;;;;5.25;2.03;;;;;;;19.81;94.73;101471.31;5040012;28;20118;-82
2022/08/26 07:08:14;;;;;;;5.15;2.30;;;;;;;19.86;94.42;101476.88;5042792;28;20047;-80
2022/08/26 07:10:39;;;;;;;6.20;2.20;;;;;;;19.88;94.03;101467.28;5040400;28;20047;-81
2022/08/26 07:13:05;;;;;;;7.65;2.75;;;;;;;19.89;94.29;101468.09;5041051;28;20032;-81
2022/08/26 07:15:32;;;;;;;7.70;2.30;;;;;;;19.90;93.69;101472.50;5040823;28;20032;-81
2022/08/26 07:17:57;;;;;;;9.52;2.60;;;;;;;20.03;95.09;101477.59;5041963;28;20165;-80
2022/08/26 07:20:23;;;;;;;6.53;2.20;;;;;;;20.03;93.63;101472.09;5041208;28;20405;-81
2022/08/26 07:22:48;;;;;;;8.15;2.33;;;;;;;20.03;92.63;101466.59;5023940;28;20132;-80
2022/08/26 07:25:13;;;;;;;7.03;2.03;;;;;;;20.01;91.82;101485.25;5040756;28;20567;-81
2022/08/26 07:28:23;;;;;;;7.28;2.10;;;;;;;20.05;91.74;101486.41;5041283;28;20488;-80
2022/08/26 07:30:48;;;;;;;12.93;2.45;;;;;;;20.03;92.09;101480.34;5041262;28;20051;-83
2022/08/26 07:33:14;;;;;;;8.18;2.30;;;;;;;19.96;90.93;101485.19;5040065;28;20123;-81
2022/08/26 07:35:39;;;;;;;7.25;1.95;;;;;;;20.01;91.35;101489.94;5041004;28;20132;-82
2022/08/26 07:38:04;;;;;;;5.55;2.03;;;;;;;20.06;91.87;101493.56;5040788;28;20123;-81
2022/08/26 07:40:31;;;;;;;10.23;2.28;;;;;;;20.04;91.56;101494.91;5042543;28;20115;-81
2022/08/26 07:42:56;;;;;;;10.85;2.20;;;;;;;20.08;91.39;101499.63;5041952;28;20119;-80
2022/08/26 07:45:22;;;;;;;6.35;2.15;;;;;;;20.12;91.44;101493.63;5039212;28;20468;-81
2022/08/26 07:47:47;;;;;;;6.03;2.17;;;;;;;20.19;91.44;101499.75;5041038;28;20040;-80
2022/08/26 07:50:13;;;;;;;5.75;2.08;;;;;;;20.23;91.03;101498.13;5039410;28;20515;-81
2022/08/26 07:52:38;;;;;;;5.82;2.03;;;;;;;20.27;89.43;101498.44;5041112;28;20049;-80
2022/08/26 07:55:06;;;;;;;7.90;1.98;;;;;;;20.24;89.19;101505.28;5040766;28;20052;-80
2022/08/26 07:57:32;;;;;;;5.80;2.05;;;;;;;20.32;88.96;101507.56;5024178;28;20032;-81
2022/08/26 07:59:58;;;;;;;6.47;1.85;;;;;;;20.40;88.61;101509.03;5040843;28;20098;-82
2022/08/26 08:02:25;;;;;;;8.35;1.98;;;;;;;20.52;88.38;101504.16;5041026;28;20162;-80
2022/08/26 08:04:51;;;;;;;9.20;2.20;;;;;;;20.47;87.58;101509.63;5041320;28;20045;-82
2022/08/26 08:07:16;;;;;;;10.27;1.95;;;;;;;20.52;86.99;101512.44;5022639;28;20500;-81
2022/08/26 08:09:42;;;;;;;6.00;2.00;;;;;;;20.61;86.09;101510.00;5038975;28;20072;-83
2022/08/26 08:12:08;;;;;;;7.38;2.05;;;;;;;20.57;86.31;101509.69;5039799;28;20033;-81
2022/08/26 08:14:35;;;;;;;8.65;2.10;;;;;;;20.58;86.04;101513.28;5040799;28;20039;-82
2022/08/26 08:17:02;;;;;;;11.63;2.22;;;;;;;20.64;86.08;101517.72;5040395;28;20429;-82
2022/08/26 08:19:27;;;;;;;6.93;1.70;;;;;;;20.65;85.75;101516.63;5040566;28;20445;-82
2022/08/26 08:21:53;;;;;;;6.53;1.80;;;;;;;20.73;85.65;101518.94;5039938;28;20262;-82
2022/08/26 08:24:18;;;;;;;5.43;1.70;;;;;;;20.72;86.09;101531.03;5040164;28;20457;-80
2022/08/26 08:26:44;;;;;;;8.07;1.98;;;;;;;20.73;84.77;101516.19;5040632;28;20795;-81
2022/08/26 08:29:10;;;;;;;5.20;1.40;;;;;;;20.71;83.76;101520.28;5022664;28;20052;-80
2022/08/26 08:31:36;;;;;;;4.38;1.60;;;;;;;20.68;82.65;101521.66;5041034;28;20033;-81
2022/08/26 08:34:02;;;;;;;7.28;1.80;;;;;;;20.72;82.52;101527.47;5040540;28;20033;-83
2022/08/26 08:36:27;;;;;;;7.50;1.90;;;;;;;20.74;82.52;101528.03;5040552;28;20517;-81
2022/08/26 08:38:53;;;;;;;8.30;2.00;;;;;;;20.85;82.18;101531.72;5040820;28;20040;-82
2022/08/26 08:41:33;;;;;;;4.35;1.33;;;;;;;20.84;81.73;101530.03;5040306;28;20036;-83
2022/08/26 08:44:00;;;;;;;6.07;1.70;;;;;;;20.79;81.09;101532.75;5041001;28;20036;-82
2022/08/26 08:46:26;;;;;;;7.28;1.40;;;;;;;20.80;81.01;101529.72;5040433;28;20060;-82
2022/08/26 08:48:56;;;;;;;7.50;1.67;;;;;;;20.77;81.37;101534.91;5040632;28;20531;-83
2022/08/26 08:51:40;;;;;;;3.95;1.30;;;;;;;20.81;81.40;101525.06;5022539;28;20040;-82
2022/08/26 08:54:07;;;;;;;7.25;1.80;;;;;;;20.77;81.51;101523.91;5040704;28;20496;-82
2022/08/26 08:56:48;;;;;;;7.72;1.70;;;;;;;20.85;81.61;101531.72;5040044;28;20068;-82
2022/08/26 08:59:19;;;;;;;6.63;1.70;;;;;;;20.90;81.40;101532.56;5044196;28;20433;-83
2022/08/26 09:01:50;;;;;;;6.80;1.70;;;;;;;20.94;81.07;101524.59;5043828;28;20859;-82
2022/08/26 09:04:44;;;;;;;7.22;1.70;;;;;;;20.95;81.67;101522.69;5044466;28;20123;-82
2022/08/26 09:07:18;;;;;;;7.22;1.73;;;;;;;21.05;80.75;101526.34;5043848;28;20578;-81
2022/08/26 09:09:50;;;;;;;6.32;1.55;;;;;;;21.03;81.07;101523.00;5044753;28;20432;-82
2022/08/26 09:12:20;;;;;;;5.50;1.83;;;;;;;20.93;80.27;101511.94;5043393;28;20079;-82
2022/08/26 09:14:48;;;;;;;6.57;1.70;;;;;;;20.92;81.01;101530.38;5044151;28;20125;-81
2022/08/26 09:17:44;;;;;;;6.40;1.70;;;;;;;21.02;81.65;101523.28;5043854;28;20057;-81
2022/08/26 09:20:56;;;;;;;5.18;1.30;;;;;;;21.01;81.33;101535.38;5043385;28;20035;-82
2022/08/26 09:23:22;;;;;;;6.03;1.70;;;;;;;20.85;79.29;101542.72;4981424;28;20459;-82
2022/08/26 09:25:57;;;;;;;6.68;1.70;;;;;;;20.87;80.14;101537.75;4952719;28;20069;-82
2022/08/26 09:28:24;;;;;;;8.48;1.50;;;;;;;20.77;79.83;101546.78;4982033;28;20046;-83
2022/08/26 09:31:09;;;;;;;6.85;1.80;;;;;;;20.80;80.63;101538.00;4981689;28;20045;-81
2022/08/26 09:33:35;;;;;;;4.82;1.83;;;;;;;20.72;79.82;101533.78;4980925;28;20058;-83
2022/08/26 09:36:14;;;;;;;8.13;1.73;;;;;;;20.68;80.53;101538.16;4964296;28;20046;-83
2022/08/26 09:38:40;;;;;;;9.25;2.03;;;;;;;20.62;80.43;101539.19;4981384;28;20186;-83
2022/08/26 09:41:19;;;;;;;8.02;1.75;;;;;;;20.66;81.36;101545.84;4980813;28;20181;-84
2022/08/26 09:44:08;;;;;;;7.93;1.73;;;;;;;20.74;81.14;101545.38;4980607;28;20423;-81
2022/08/26 09:46:41;;;;;;;7.75;1.70;;;;;;;20.72;81.57;101550.31;4980672;28;20038;-82
2022/08/26 09:49:30;;;;;;;7.70;2.20;;;;;;;20.80;81.28;101546.25;4980106;28;20060;-83
2022/08/26 09:52:05;;;;;;;7.00;1.48;;;;;;;20.84;80.73;101546.56;4973718;28;20293;-82
2022/08/26 09:54:30;;;;;;;9.85;2.10;;;;;;;20.79;80.97;101554.78;5021135;28;20053;-83
2022/08/26 09:57:25;;;;;;;9.38;1.60;;;;;;;20.89;80.66;101547.44;5043033;28;20945;-86
2022/08/26 09:59:51;;;;;;;7.70;1.90;;;;;;;20.81;80.67;101545.16;5035738;28;20033;-80
2022/08/26 10:02:26;;;;;;;7.80;2.00;;;;;;;20.89;80.79;101541.09;5041114;28;20052;-83
2022/08/26 10:04:54;;;;;;;8.77;1.80;;;;;;;21.00;81.05;101545.56;5042241;28;20472;-82
2022/08/26 10:08:31;;;;;;;9.55;1.90;;;;;;;21.07;80.33;101548.09;5042274;28;20024;-83
2022/08/26 10:11:00;;;;;;;7.57;1.50;;;;;;;20.97;79.27;101550.78;4999353;28;20091;-82
2022/08/26 10:13:36;;;;;;;8.10;1.77;;;;;;;20.95;81.06;101550.22;4999978;28;20041;-84
2022/08/26 10:16:15;;;;;;;8.30;1.73;;;;;;;21.00;80.42;101542.00;5032512;28;20047;-82
2022/08/26 10:18:49;;;;;;;6.95;2.03;;;;;;;20.92;80.24;101552.41;5042654;28;20136;-81
2022/08/26 10:21:19;;;;;;;;;;;;;;;21.10;79.84;101550.31;5042943;28;20519;-81
2022/08/26 10:23:50;;;;;;;6.18;1.80;;;;;;;20.93;80.07;101556.00;5042433;28;19928;-83
2022/08/26 10:26:24;;;;;;;10.10;1.83;;;;;;;20.83;80.46;101561.41;5041944;28;20024;-83
2022/08/26 10:29:00;;;;;;;6.05;1.65;;;;;;;20.71;80.75;101556.94;5042689;28;20167;-81
2022/08/26 10:31:40;;;;;;;7.05;1.70;;;;;;;20.70;81.26;101551.69;5042460;28;20036;-84
2022/08/26 10:34:05;;;;;;;8.15;1.75;;;;;;;20.61;81.76;101551.31;5041900;28;20037;-82
2022/08/26 10:36:49;;;;;;;6.97;1.80;;;;;;;20.63;82.13;101546.38;5042185;28;20037;-83
2022/08/26 10:39:25;;;;;;;5.00;1.70;;;;;;;20.68;81.71;101549.19;5042405;28;20063;-83
2022/08/26 10:41:56;;;;;;;6.35;1.70;;;;;;;20.66;81.46;101543.09;5041492;28;20033;-82
2022/08/26 10:44:24;;;;;;;7.43;1.92;;;;;;;20.60;81.49;101552.38;5042148;28;20115;-82
2022/08/26 10:46:55;;;;;;;9.02;1.98;;;;;;;20.60;81.23;101546.88;5040902;28;20028;-81
2022/08/26 10:49:20;;;;;;;7.13;1.95;;;;;;;20.62;81.21;101544.72;5042260;28;20149;-84
2022/08/26 10:51:59;;;;;;;6.80;1.63;;;;;;;20.65;81.12;101546.09;5041228;28;20033;-81
2022/08/26 10:54:32;;;;;;;9.60;1.95;;;;;;;20.59;81.54;101556.25;5040143;28;20063;-84
2022/08/26 10:57:16;;;;;;;7.00;1.98;;;;;;;20.64;82.22;101548.00;5041048;28;20033;-86
2022/08/26 10:59:51;;;;;;;10.23;1.90;;;;;;;20.64;82.02;101542.50;5024001;28;20388;-86
2022/08/26 11:02:27;;;;;;;7.38;1.90;;;;;;;20.71;81.36;101551.44;5040658;28;20040;-82
2022/08/26 11:05:04;;;;;;;7.95;1.92;;;;;;;20.71;81.09;101548.69;5041969;28;20037;-84
2022/08/26 11:07:37;;;;;;;7.85;1.67;;;;;;;20.77;81.13;101545.94;5041273;28;20041;-82
2022/08/26 11:10:15;;;;;;;8.27;1.83;;;;;;;20.82;80.92;101554.25;5041300;28;20040;-83
2022/08/26 11:12:40;;;;;;;7.85;2.00;;;;;;;20.71;80.30;101547.81;5041036;28;20032;-87
2022/08/26 11:15:09;;;;;;;6.20;1.70;;;;;;;20.67;80.34;101553.00;5042135;28;20485;-82
2022/08/26 11:17:45;;;;;;;7.60;1.70;;;;;;;20.70;80.70;101551.69;5039050;28;20055;-82
2022/08/26 11:20:19;;;;;;;9.10;1.90;;;;;;;20.59;80.46;101545.25;5040409;28;20056;-85
2022/08/26 11:22:45;;;;;;;7.85;1.88;;;;;;;20.58;80.87;101560.09;5040861;28;20091;-82
2022/08/26 11:25:16;;;;;;;7.13;1.65;;;;;;;20.69;81.17;101545.34;5040698;28;20136;-84
2022/08/26 11:27:49;;;;;;;8.23;1.85;;;;;;;20.73;80.65;101559.41;5023634;28;20102;-82
2022/08/26 11:30:14;;;;;;;5.60;1.70;;;;;;;20.72;80.61;101547.56;5041564;28;20060;-83
2022/08/26 11:32:40;;;;;;;10.95;1.80;;;;;;;20.68;80.30;101538.16;5022469;28;20186;-84
2022/08/26 11:35:18;;;;;;;6.43;1.48;;;;;;;20.77;81.05;101545.94;5040108;28;20063;-83
2022/08/26 11:37:51;;;;;;;9.75;1.90;;;;;;;20.77;81.17;101546.78;5040738;28;20037;-83